• Join FlightAware (Why Join?)
  • Login
  • US Flag 
03:52AM EST


 

Airport Tracker/Info


-or-


 

Live Flight TrackerFlight Track Log ✈ SWA1714 ✈ 03-May-2013 ✈ KPHX - KABQ

Flight Track Log - Related Links

Times and Time Zones

All times are in EDT time to prevent confusion due to time zone crossing. See the SWA1714 flight status page for this flight to view local times or setup timezone preferences in your user account.

Time Position Orientation Groundspeed Altitude Reporting Facility
EDT Latitude Longitude Course Direction KTS MPH feet Rate Location/Type
01:03AM 33.4333 -111.9833 85° East 175 201 2,000  Level Phoenix TRACON
01:04AM 33.4375 -111.9197 85° East 209 241 4,100 1,920 Climbing Albuquerque Center
01:05AM 33.4550 -111.8400 75° East 268 308 6,200 2,940 Climbing Albuquerque Center
01:06AM 33.4989 -111.7600 57° Northeast 288 331 10,100 3,420 Climbing Albuquerque Center
01:07AM 33.5394 -111.6678 62° Northeast 320 368 13,100 3,120 Climbing Albuquerque Center
01:08AM 33.5850 -111.5447 66° East 341 392 16,400 3,060 Climbing Albuquerque Center
01:09AM 33.6258 -111.4344 66° East 362 417 19,300 2,520 Climbing Albuquerque Center
01:10AM 33.6692 -111.3203 65° Northeast 377 434 21,600 2,280 Climbing Albuquerque Center
01:11AM 33.7139 -111.1983 66° East 401 461 23,900 2,160 Climbing Albuquerque Center
01:12AM 33.7581 -111.0717 67° East 413 475 26,000 1,980 Climbing Albuquerque Center
01:13AM 33.8042 -110.9386 67° East 428 493 28,000 1,800 Climbing Albuquerque Center
01:14AM 33.8528 -110.8031 67° East 438 504 29,700 1,620 Climbing Albuquerque Center
01:15AM 33.9017 -110.6650 67° East 446 513 31,300 1,500 Climbing Albuquerque Center
01:16AM 33.9528 -110.5225 67° East 458 527 32,800 1,620 Climbing Albuquerque Center
01:17AM 34.0050 -110.3725 67° East 467 537 34,600 1,440 Climbing Albuquerque Center
01:18AM 34.0553 -110.2264 67° East 472 543 35,800 1,140 Climbing Albuquerque Center
01:19AM 34.1075 -110.0739 67° East 475 547 37,000 540 Climbing Albuquerque Center
01:20AM 34.1567 -109.9342 67° East 475 547 37,000  Level Albuquerque Center
01:21AM 34.2136 -109.7681 67° East 478 550 37,000  Level Albuquerque Center
01:22AM 34.2606 -109.6297 68° East 471 542 37,000  Level Albuquerque Center
01:23AM 34.3081 -109.4903 68° East 468 539 37,000  Level Albuquerque Center
01:24AM 34.3625 -109.3289 68° East 467 537 37,000  Level Albuquerque Center
01:25AM 34.4089 -109.1900 68° East 465 535 37,000  Level Albuquerque Center
01:26AM 34.4375 -109.0425 77° East 471 542 37,000  Level Albuquerque Center
01:27AM 34.4606 -108.8667 81° East 477 549 37,000  Level Albuquerque Center
01:28AM 34.4789 -108.7156 82° East 476 548 37,000  Level Albuquerque Center
01:29AM 34.4978 -108.5628 81° East 476 548 37,000 -1,140 Level Albuquerque Center
01:30AM 34.5225 -108.3986 80° East 479 551 34,800 -1,980 Descending Albuquerque Center
01:31AM 34.5489 -108.2442 78° East 474 545 33,000 -1,980 Descending Albuquerque Center
01:32AM 34.5469 -108.0919 91° East 471 542 30,900 -2,700 Descending Albuquerque Center
01:33AM 34.5764 -107.9481 76° East 455 524 27,600 -2,880 Descending Albuquerque Center
01:34AM 34.6328 -107.8150 63° Northeast 447 514 25,200 -2,340 Descending Albuquerque Center
01:35AM 34.6856 -107.6892 63° Northeast 428 493 22,900 -2,340 Descending Albuquerque Center
01:36AM 34.7353 -107.5672 64° Northeast 410 472 20,600 -2,220 Descending Albuquerque Center
01:37AM 34.7831 -107.4511 63° Northeast 392 451 18,500 -2,160 Descending Albuquerque Center
01:37AM 34.7969 -107.4156 65° Northeast 375 432 17,900 -2,220 Descending Albuquerque Center
01:38AM 34.8125 -107.3806 62° Northeast 369 425 17,300 -1,980 Descending Albuquerque Center
01:38AM 34.8292 -107.3411 63° Northeast 374 430 16,400 -2,280 Descending Albuquerque Center
01:39AM 34.8583 -107.2608 66° East 358 412 15,000 -2,040 Descending Albuquerque Center
01:39AM 34.8633 -107.2292 79° East 362 417 14,400 -2,160 Descending Albuquerque Center
01:39AM 34.8736 -107.1639 79° East 350 403 13,100 -2,400 Descending Albuquerque Center
01:40AM 34.8828 -107.1125 78° East 355 409 12,000 -1,500 Descending Albuquerque Center
01:41AM 34.8933 -107.0425 80° East 338 389 11,600 -1,020 Descending Albuquerque Center
01:41AM 34.8997 -107.0056 78° East 342 394 11,000 -1,620 Descending Albuquerque Center
01:42AM 34.9125 -106.9419 76° East 297 342 10,000 -1,620 Descending Albuquerque Center
01:42AM 34.9161 -106.9083 83° East 317 365 9,400 -1,620 Descending Albuquerque Center
01:43AM 34.9278 -106.8450 77° East 294 338 8,400 -1,920 Descending Albuquerque Center
01:43AM 34.9353 -106.7928 80° East 302 348 7,500 -1,140 Descending Albuquerque Center
01:43AM 34.9425 -106.7583 76° East 285 328 7,400 -300 Descending Albuquerque Center
01:44AM 34.9533 -106.7125 74° East 271 312 7,200 -600 Descending Albuquerque Center
01:44AM 34.9697 -106.6942 43° Northeast 202 232 6,800 -1,020 Descending Albuquerque Center
01:45AM 34.9917 -106.6661 46° Northeast 221 254 6,200 -1,020 Descending Albuquerque Center
01:45AM 35.0050 -106.6514 42° Northeast 165 190 5,800 -900 Descending Albuquerque Center
01:46AM 35.0225 -106.6275 48° Northeast 186 214 5,300 -840 Descending Albuquerque Center
01:48AM 35.0333 -106.6000 51° Northeast  Level FlightAware Approximate